Time;durP1;ratioP1;P1;durP2;ratioP2;P2;SDS_P1;SDS_P2;PMS_P1;PMS_P2;Temp;Humidity;BMP_temperature;BMP_pressure;BME280_temperature;BME280_humidity;BME280_pressure;Samples;Min_cycle;Max_cycle;Signal;HPM_P1;HPM_P2
2022/05/11 00:01:09;;;;;;;;;;;;;;;22.55;35.01;99412.53;4482770;32;34227;-83
2022/05/11 00:03:37;;;;;;;;;;;;;;;22.46;34.96;99404.88;4482845;32;35165;-85
2022/05/11 00:06:05;;;;;;;;;;;;;;;22.49;34.75;99406.56;4480988;32;33418;-85
2022/05/11 00:08:32;;;;;;;;;;;;;;;22.44;34.81;99406.72;4463429;32;34865;-85
2022/05/11 00:11:00;;;;;;;;;;;;;;;22.52;34.68;99399.41;4482011;32;34330;-85
2022/05/11 00:13:28;;;;;;;;;;;;;;;22.42;34.92;99405.03;4483263;32;34518;-82
2022/05/11 00:15:55;;;;;;;;;;;;;;;22.42;35.09;99405.03;4481987;32;34322;-84
2022/05/11 00:18:23;;;;;;;;;;;;;;;22.62;34.62;99407.91;4475631;32;34651;-85
2022/05/11 00:20:50;;;;;;;;;;;;;;;22.69;34.43;99406.81;4482657;32;34336;-85
2022/05/11 00:23:17;;;;;;;;;;;;;;;22.79;34.47;99402.91;4468925;32;34991;-86
2022/05/11 00:25:45;;;;;;;;;;;;;;;22.74;34.54;99404.84;4467544;32;34426;-86
2022/05/11 00:28:12;;;;;;;;;;;;;;;22.65;34.50;99407.78;4479192;32;34154;-84
2022/05/11 00:30:39;;;;;;;;;;;;;;;22.52;34.84;99406.47;4474501;32;34116;-86
2022/05/11 00:33:07;;;;;;;;;;;;;;;22.42;34.98;99402.38;4482508;32;34053;-85
2022/05/11 00:35:34;;;;;;;;;;;;;;;22.21;35.17;99396.88;4482566;32;33062;-84
2022/05/11 00:38:02;;;;;;;;;;;;;;;22.32;34.83;99402.69;4480345;32;33901;-85
2022/05/11 00:40:29;;;;;;;;;;;;;;;22.29;34.89;99396.63;4483282;32;34556;-85
2022/05/11 00:42:57;;;;;;;;;;;;;;;22.29;35.06;99397.50;4475003;32;35143;-84
2022/05/11 00:45:24;;;;;;;;;;;;;;;22.40;34.91;99397.16;4483329;32;33941;-85
2022/05/11 00:47:53;;;;;;;;;;;;;;;22.35;34.80;99393.81;4467189;32;33739;-84
2022/05/11 00:50:22;;;;;;;;;;;;;;;22.30;34.84;99401.84;4469063;32;35203;-84
2022/05/11 00:52:50;;;;;;;;;;;;;;;22.40;34.74;99399.81;4468261;32;35194;-84
2022/05/11 00:55:19;;;;;;;;;;;;;;;22.23;34.95;99399.44;4469154;32;33197;-84
2022/05/11 00:58:04;;;;;;;;;;;;;;;22.43;34.55;99396.22;4468112;32;35159;-85
2022/05/11 01:00:32;;;;;;;;;;;;;;;22.26;34.88;99397.59;4482968;32;34359;-85
2022/05/11 01:03:18;;;;;;;;;;;;;;;22.31;34.77;99394.78;4467749;32;34205;-82
2022/05/11 01:05:46;;;;;;;;;;;;;;;22.41;34.54;99393.59;4473544;32;34364;-85
2022/05/11 01:08:13;;;;;;;;;;;;;;;22.33;34.79;99392.97;4468431;32;33814;-84
2022/05/11 01:10:40;;;;;;;;;;;;;;;22.47;34.60;99387.28;4480997;32;34453;-85
2022/05/11 01:13:09;;;;;;;;;;;;;;;22.36;34.76;99399.97;4465606;32;35120;-82
2022/05/11 01:15:36;;;;;;;;;;;;;;;22.45;34.68;99397.00;4468579;32;33574;-84
2022/05/11 01:18:05;;;;;;;;;;;;;;;22.34;34.97;99395.56;4458305;32;34306;-84
2022/05/11 01:20:33;;;;;;;;;;;;;;;22.42;34.76;99399.75;4453371;32;33503;-83
2022/05/11 01:23:18;;;;;;;;;;;;;;;22.48;34.55;99397.78;4453681;32;34843;-85
2022/05/11 01:25:45;;;;;;;;;;;;;;;22.32;34.72;99400.03;4452865;32;34554;-83
2022/05/11 01:28:13;;;;;;;;;;;;;;;22.29;35.12;99396.63;4472925;32;33913;-86
2022/05/11 01:30:42;;;;;;;;;;;;;;;22.32;35.16;99397.41;4468684;32;34198;-84
2022/05/11 01:33:13;;;;;;;;;;;;;;;22.31;35.12;99397.44;4480580;32;35067;-84
2022/05/11 01:35:44;;;;;;;;;;;;;;;22.48;34.86;99399.56;4482788;32;33810;-84
2022/05/11 01:38:30;;;;;;;;;;;;;;;22.40;34.89;99401.59;4472310;32;34356;-84
2022/05/11 01:40:57;;;;;;;;;;;;;;;22.15;35.20;99404.13;4467135;32;33713;-85
2022/05/11 01:43:27;;;;;;;;;;;;;;;22.16;35.30;99405.84;4466777;32;34242;-84
2022/05/11 01:45:54;;;;;;;;;;;;;;;22.17;35.23;99399.66;4467874;32;34265;-82
2022/05/11 01:48:22;;;;;;;;;;;;;;;22.09;35.33;99395.44;4480955;32;34240;-84
2022/05/11 01:50:49;;;;;;;;;;;;;;;21.99;35.51;99396.63;4468361;32;35066;-85
2022/05/11 01:53:16;;;;;;;;;;;;;;;22.10;35.26;99397.16;4455159;32;34488;-85
2022/05/11 01:55:44;;;;;;;;;;;;;;;22.25;34.92;99398.50;4467923;32;33734;-82
2022/05/11 01:58:11;;;;;;;;;;;;;;;22.14;35.44;99400.59;4480520;32;33796;-84
2022/05/11 02:00:39;;;;;;;;;;;;;;;22.15;35.32;99399.69;4480585;32;35028;-84
2022/05/11 02:03:07;;;;;;;;;;;;;;;22.23;35.32;99397.66;4473896;32;34019;-84
2022/05/11 02:08:20;;;;;;;;;;;;;;;22.33;35.07;99401.75;4479746;32;35051;-84
2022/05/11 02:10:48;;;;;;;;;;;;;;;22.11;35.52;99398.03;4466456;32;34528;-85
2022/05/11 02:13:15;;;;;;;;;;;;;;;22.21;35.22;99386.31;4466443;32;33725;-84
2022/05/11 02:15:43;;;;;;;;;;;;;;;22.18;35.12;99388.19;4466277;32;33683;-82
2022/05/11 02:18:10;;;;;;;;;;;;;;;22.10;35.26;99393.66;4480517;32;33929;-84
2022/05/11 02:20:38;;;;;;;;;;;;;;;22.05;35.35;99390.31;4480335;32;34227;-85
2022/05/11 02:23:05;;;;;;;;;;;;;;;22.15;35.08;99396.19;4475451;32;34821;-84
2022/05/11 02:25:32;;;;;;;;;;;;;;;22.07;35.32;99389.34;4476609;32;33736;-84
2022/05/11 02:28:00;;;;;;;;;;;;;;;22.10;35.32;99391.03;4459493;32;34078;-83
2022/05/11 02:30:29;;;;;;;;;;;;;;;22.14;35.46;99389.19;4478562;32;34263;-85
2022/05/11 02:32:56;;;;;;;;;;;;;;;22.29;35.08;99386.94;4465898;32;34291;-85
2022/05/11 02:35:24;;;;;;;;;;;;;;;22.15;35.23;99394.41;4465125;32;34244;-84
2022/05/11 02:37:53;;;;;;;;;;;;;;;22.22;35.02;99393.31;4478834;32;34577;-84
2022/05/11 02:40:24;;;;;;;;;;;;;;;22.10;35.24;99391.87;4466179;32;34018;-83
2022/05/11 02:42:52;;;;;;;;;;;;;;;22.27;34.95;99388.75;4467444;32;35071;-83
2022/05/11 02:45:20;;;;;;;;;;;;;;;22.22;35.04;99388.03;4483938;32;34302;-83
2022/05/11 02:47:48;;;;;;;;;;;;;;;22.21;35.09;99383.66;4466157;32;35138;-84
2022/05/11 02:50:18;;;;;;;;;;;;;;;22.01;35.38;99386.91;4476421;32;33757;-84
2022/05/11 02:52:45;;;;;;;;;;;;;;;22.18;35.17;99388.19;4483683;32;34200;-83
2022/05/11 02:55:13;;;;;;;;;;;;;;;22.06;35.40;99394.66;4454048;32;33331;-82
2022/05/11 02:57:40;;;;;;;;;;;;;;;22.05;35.57;99388.53;4463137;32;33542;-85
2022/05/11 03:00:09;;;;;;;;;;;;;;;22.08;35.56;99384.91;4473913;32;34021;-85
2022/05/11 03:02:36;;;;;;;;;;;;;;;22.09;35.67;99382.25;4465040;32;34537;-82
2022/05/11 03:05:05;;;;;;;;;;;;;;;22.11;35.49;99387.47;4483447;32;33397;-84
2022/05/11 03:07:32;;;;;;;;;;;;;;;22.15;35.30;99383.84;4479294;32;34039;-84
2022/05/11 03:09:59;;;;;;;;;;;;;;;22.05;35.41;99387.66;4477169;32;35412;-83
2022/05/11 03:12:27;;;;;;;;;;;;;;;22.05;35.38;99388.53;4483004;32;34504;-85
2022/05/11 03:14:54;;;;;;;;;;;;;;;22.09;35.21;99390.16;4483537;32;34274;-84
2022/05/11 03:17:21;;;;;;;;;;;;;;;22.05;35.34;99387.66;4483193;32;33963;-85
2022/05/11 03:19:49;;;;;;;;;;;;;;;22.02;35.60;99391.25;4476814;32;34164;-84
2022/05/11 03:22:16;;;;;;;;;;;;;;;22.03;35.86;99392.97;4475509;32;34190;-85
2022/05/11 03:24:43;;;;;;;;;;;;;;;21.96;36.13;99393.22;4453829;32;33311;-84
2022/05/11 03:27:11;;;;;;;;;;;;;;;22.10;35.61;99391.87;4476638;32;35112;-84
2022/05/11 03:29:38;;;;;;;;;;;;;;;22.27;35.19;99388.75;4472068;32;34124;-81
2022/05/11 03:34:52;;;;;;;;;;;;;;;22.18;35.42;99394.31;4483617;32;33471;-85
2022/05/11 03:37:19;;;;;;;;;;;;;;;22.19;35.55;99400.47;4480639;32;34983;-83
2022/05/11 03:39:47;;;;;;;;;;;;;;;22.33;35.45;99407.06;4482082;32;34141;-84
2022/05/11 03:42:17;;;;;;;;;;;;;;;22.25;35.38;99401.16;4483061;32;34189;-81
2022/05/11 03:44:45;;;;;;;;;;;;;;;22.22;35.56;99406.50;4469308;32;32969;-82
2022/05/11 03:47:12;;;;;;;;;;;;;;;22.17;35.71;99408.44;4467578;32;33773;-83
2022/05/11 03:49:39;;;;;;;;;;;;;;;22.33;35.47;99411.47;4469065;32;33960;-85
2022/05/11 03:52:07;;;;;;;;;;;;;;;22.37;35.40;99410.47;4483319;32;35547;-84
2022/05/11 03:54:36;;;;;;;;;;;;;;;22.47;35.25;99411.03;4471421;32;33790;-84
2022/05/11 03:57:04;;;;;;;;;;;;;;;22.58;35.31;99412.44;4483454;32;34273;-85
2022/05/11 03:59:31;;;;;;;;;;;;;;;22.46;35.83;99409.28;4473100;32;34416;-83
2022/05/11 04:01:58;;;;;;;;;;;;;;;22.64;35.57;99414.00;4473592;32;36612;-85
2022/05/11 04:04:26;;;;;;;;;;;;;;;22.85;35.31;99406.28;4477675;32;33376;-85
2022/05/11 04:06:54;;;;;;;;;;;;;;;22.90;35.23;99415.78;4482318;32;33974;-84
2022/05/11 04:09:21;;;;;;;;;;;;;;;23.07;35.25;99415.25;4483381;32;33938;-84
2022/05/11 04:11:48;;;;;;;;;;;;;;;23.18;35.40;99414.87;4479214;32;35080;-85
2022/05/11 04:14:16;;;;;;;;;;;;;;;23.42;34.79;99418.44;4483460;32;33949;-85
2022/05/11 04:16:43;;;;;;;;;;;;;;;23.61;34.62;99416.00;4480741;32;34015;-85
2022/05/11 04:19:11;;;;;;;;;;;;;;;23.73;34.43;99418.22;4478673;32;34523;-85
2022/05/11 04:21:38;;;;;;;;;;;;;;;24.11;33.93;99423.84;4478496;32;34177;-85
2022/05/11 04:24:05;;;;;;;;;;;;;;;24.44;33.48;99427.03;4451488;32;783966;-85
2022/05/11 04:26:33;;;;;;;;;;;;;;;24.83;33.33;99428.97;4478752;32;34158;-84
2022/05/11 04:29:00;;;;;;;;;;;;;;;25.21;32.71;99414.97;4470570;32;34287;-86
2022/05/11 04:31:27;;;;;;;;;;;;;;;25.44;32.66;99421.06;4474301;32;34321;-85
2022/05/11 04:33:55;;;;;;;;;;;;;;;25.55;32.95;99418.81;4476372;32;33095;-84
2022/05/11 04:36:22;;;;;;;;;;;;;;;26.00;32.99;99420.34;4483403;32;34283;-84
2022/05/11 04:38:49;;;;;;;;;;;;;;;26.22;32.13;99424.66;4483301;32;34299;-84
2022/05/11 04:41:18;;;;;;;;;;;;;;;26.42;31.81;99424.56;4481676;32;34636;-82
2022/05/11 04:43:51;;;;;;;;;;;;;;;26.79;31.56;99430.78;4482639;32;33957;-84
2022/05/11 04:46:18;;;;;;;;;;;;;;;26.94;31.17;99430.00;4483545;32;34704;-85
2022/05/11 04:48:46;;;;;;;;;;;;;;;26.83;31.73;99421.69;4477872;32;34597;-84
2022/05/11 04:51:13;;;;;;;;;;;;;;;27.22;31.35;99421.50;4477556;32;33981;-81
2022/05/11 04:53:40;;;;;;;;;;;;;;;27.23;30.80;99420.56;4480058;32;33810;-83
2022/05/11 04:56:08;;;;;;;;;;;;;;;27.58;30.74;99421.41;4481592;32;34018;-82
2022/05/11 04:58:35;;;;;;;;;;;;;;;27.44;30.75;99420.41;4482993;32;34405;-84
2022/05/11 05:01:03;;;;;;;;;;;;;;;27.71;30.47;99418.06;4477469;32;35097;-82
2022/05/11 05:03:30;;;;;;;;;;;;;;;27.77;30.54;99421.31;4482286;32;32029;-83
2022/05/11 05:05:58;;;;;;;;;;;;;;;28.02;30.23;99425.28;4482394;32;33678;-85
2022/05/11 05:08:25;;;;;;;;;;;;;;;28.22;30.36;99427.69;4482802;32;34151;-82
2022/05/11 05:10:53;;;;;;;;;;;;;;;28.66;29.58;99426.19;4480992;32;33945;-83
2022/05/11 05:13:21;;;;;;;;;;;;;;;28.97;29.40;99426.09;4476319;32;33365;-84
2022/05/11 05:15:54;;;;;;;;;;;;;;;28.99;29.45;99424.25;4472680;32;34320;-84
2022/05/11 05:18:21;;;;;;;;;;;;;;;29.03;29.36;99422.25;4467355;32;34454;-82
2022/05/11 05:20:48;;;;;;;;;;;;;;;29.26;29.27;99428.91;4467360;32;35161;-84
2022/05/11 05:23:16;;;;;;;;;;;;;;;29.35;29.43;99425.66;4467357;32;33620;-85
2022/05/11 05:25:43;;;;;;;;;;;;;;;29.19;29.84;99424.88;4452578;32;34105;-85
2022/05/11 05:31:06;;;;;;;;;;;;;;;29.00;30.18;99425.97;4467077;32;34486;-85
2022/05/11 05:33:34;;;;;;;;;;;;;;;28.86;30.21;99429.41;4479133;32;33123;-85
2022/05/11 05:36:02;;;;;;;;;;;;;;;28.79;30.61;99432.50;4468425;32;33408;-86
2022/05/11 05:38:32;;;;;;;;;;;;;;;28.79;31.00;99438.75;4468210;32;33968;-86
2022/05/11 05:40:59;;;;;;;;;;;;;;;28.77;28.43;99437.09;4482736;32;34737;-85
2022/05/11 05:43:27;;;;;;;;;;;;;;;28.97;29.82;99434.12;4467888;32;33538;-85
2022/05/11 05:45:54;;;;;;;;;;;;;;;28.96;31.24;99440.41;4482734;32;33916;-84
2022/05/11 05:48:22;;;;;;;;;;;;;;;28.86;31.27;99444.56;4482754;32;34934;-84
2022/05/11 05:50:49;;;;;;;;;;;;;;;29.20;30.98;99431.94;4456922;32;34341;-84
2022/05/11 05:53:21;;;;;;;;;;;;;;;29.38;30.71;99433.50;4454332;32;34326;-85
2022/05/11 05:55:49;;;;;;;;;;;;;;;28.67;29.63;99439.41;4453279;32;34851;-83
2022/05/11 05:58:16;;;;;;;;;;;;;;;29.41;29.83;99432.47;4452714;32;34867;-85
2022/05/11 06:00:44;;;;;;;;;;;;;;;29.19;30.77;99431.06;4452640;32;34018;-85
2022/05/11 06:03:14;;;;;;;;;;;;;;;28.79;30.49;99437.84;4466769;32;33984;-85
2022/05/11 06:05:41;;;;;;;;;;;;;;;28.56;27.90;99437.41;4466676;32;34064;-84
2022/05/11 06:08:08;;;;;;;;;;;;;;;29.50;28.87;99435.41;4466774;32;34467;-85
2022/05/11 06:10:39;;;;;;;;;;;;;;;29.08;29.49;99429.03;4466501;32;34519;-84
2022/05/11 06:13:07;;;;;;;;;;;;;;;28.32;31.77;99441.41;4466494;32;34122;-82
2022/05/11 06:15:35;;;;;;;;;;;;;;;28.80;29.69;99439.59;4466864;32;35172;-83
2022/05/11 06:18:03;;;;;;;;;;;;;;;28.64;28.14;99439.63;4478425;32;34108;-83
2022/05/11 06:20:30;;;;;;;;;;;;;;;29.17;28.95;99440.12;4484279;32;34356;-83
2022/05/11 06:22:57;;;;;;;;;;;;;;;27.12;30.23;99444.19;4484285;32;34356;-82
2022/05/11 06:25:25;;;;;;;;;;;;;;;27.39;28.72;99447.28;4483515;32;34695;-82
2022/05/11 06:27:54;;;;;;;;;;;;;;;27.35;29.13;99440.34;4469869;32;34375;-83
2022/05/11 06:30:21;;;;;;;;;;;;;;;27.82;29.29;99440.56;4476743;32;35317;-83
2022/05/11 06:32:49;;;;;;;;;;;;;;;27.32;31.28;99438.72;4468529;32;33813;-82
2022/05/11 06:35:16;;;;;;;;;;;;;;;28.28;29.27;99445.19;4468684;32;34279;-83
2022/05/11 06:37:46;;;;;;;;;;;;;;;28.66;28.41;99434.19;4468438;32;33679;-83
2022/05/11 06:40:14;;;;;;;;;;;;;;;28.98;28.15;99446.56;4468371;32;34497;-83
2022/05/11 06:42:42;;;;;;;;;;;;;;;27.65;28.68;99438.78;4468566;32;34406;-82
2022/05/11 06:45:09;;;;;;;;;;;;;;;28.51;28.54;99447.44;4468160;32;35361;-82
2022/05/11 06:47:37;;;;;;;;;;;;;;;28.12;28.33;99442.50;4470815;32;34591;-83
2022/05/11 06:50:04;;;;;;;;;;;;;;;27.24;28.23;99437.37;4468528;32;34480;-83
2022/05/11 06:52:32;;;;;;;;;;;;;;;29.57;28.72;99435.91;4468572;32;33362;-83
2022/05/11 07:00:33;;;;;;;;;;;;;;;30.64;26.12;99434.50;4484097;32;34701;-83
2022/05/11 07:03:00;;;;;;;;;;;;;;;30.49;23.80;99436.34;4482667;32;33675;-83
2022/05/11 07:05:34;;;;;;;;;;;;;;;29.73;24.56;99434.03;4468014;32;34065;-83
2022/05/11 07:08:01;;;;;;;;;;;;;;;29.57;24.44;99428.78;4454316;32;34158;-83
2022/05/11 07:10:28;;;;;;;;;;;;;;;28.16;27.25;99441.38;4468241;32;35432;-83
2022/05/11 07:12:56;;;;;;;;;;;;;;;30.03;24.28;99433.94;4468578;32;33850;-83
2022/05/11 07:15:23;;;;;;;;;;;;;;;28.89;25.02;99440.84;4483875;32;34060;-83
2022/05/11 07:17:55;;;;;;;;;;;;;;;29.54;24.62;99441.44;4482608;32;34419;-83
2022/05/11 07:20:28;;;;;;;;;;;;;;;29.39;24.04;99437.87;4483695;32;34152;-82
2022/05/11 07:22:56;;;;;;;;;;;;;;;29.12;24.96;99440.41;4470515;32;33578;-82
2022/05/11 07:25:24;;;;;;;;;;;;;;;28.91;25.73;99447.84;4483898;32;34345;-83
2022/05/11 07:27:52;;;;;;;;;;;;;;;29.37;24.49;99431.78;4468912;32;34989;-83
2022/05/11 07:30:23;;;;;;;;;;;;;;;29.24;24.15;99428.13;4467162;32;34686;-82
2022/05/11 07:32:57;;;;;;;;;;;;;;;29.52;24.21;99438.88;4467966;32;34348;-82
2022/05/11 07:35:24;;;;;;;;;;;;;;;30.14;23.17;99424.38;4468074;32;33956;-83
2022/05/11 07:37:52;;;;;;;;;;;;;;;30.27;24.82;99433.38;4480983;32;34046;-82
2022/05/11 07:40:20;;;;;;;;;;;;;;;29.53;24.46;99437.06;4468820;32;33150;-82
2022/05/11 07:42:48;;;;;;;;;;;;;;;28.02;26.11;99442.13;4467046;32;34425;-81
2022/05/11 07:45:16;;;;;;;;;;;;;;;28.66;26.12;99436.84;4466866;32;34213;-82
2022/05/11 07:47:44;;;;;;;;;;;;;;;28.75;25.53;99436.31;4468005;32;34903;-84
2022/05/11 07:50:15;;;;;;;;;;;;;;;29.38;26.55;99430.81;4467782;32;34069;-82
2022/05/11 07:52:44;;;;;;;;;;;;;;;29.76;24.48;99422.31;4475999;32;33352;-83
2022/05/11 07:55:12;;;;;;;;;;;;;;;29.11;25.02;99429.81;4483598;32;34892;-84
2022/05/11 08:00:28;;;;;;;;;;;;;;;27.76;26.41;99437.34;4480761;32;34560;-83
2022/05/11 08:02:56;;;;;;;;;;;;;;;29.44;24.03;99433.12;4469805;32;33123;-83
2022/05/11 08:05:24;;;;;;;;;;;;;;;28.44;25.52;99437.22;4477794;32;34148;-85
2022/05/11 08:07:52;;;;;;;;;;;;;;;29.17;25.17;99437.44;4472616;32;33944;-83
2022/05/11 08:10:21;;;;;;;;;;;;;;;29.78;24.61;99431.09;4472384;32;35212;-83
2022/05/11 08:12:49;;;;;;;;;;;;;;;29.71;23.74;99432.44;4468658;32;32799;-83
2022/05/11 08:15:16;;;;;;;;;;;;;;;30.30;22.19;99427.81;4483483;32;34036;-84
2022/05/11 08:17:46;;;;;;;;;;;;;;;29.05;24.93;99428.34;4483508;32;34393;-83
2022/05/11 08:20:15;;;;;;;;;;;;;;;30.00;25.05;99427.91;4469209;32;35384;-82
2022/05/11 08:22:42;;;;;;;;;;;;;;;29.48;24.93;99423.13;4483701;32;33233;-83
2022/05/11 08:25:10;;;;;;;;;;;;;;;30.31;23.94;99426.88;4467292;32;34996;-84
2022/05/11 08:27:38;;;;;;;;;;;;;;;31.38;22.49;99424.25;4467536;32;34248;-83
2022/05/11 08:35:59;;;;;;;;;;;;;;;29.34;24.71;99421.28;4467681;32;33738;-83
2022/05/11 08:38:28;;;;;;;;;;;;;;;30.18;23.63;99425.94;4466689;32;35390;-83
2022/05/11 08:41:05;;;;;;;;;;;;;;;29.98;22.17;99416.47;4467350;32;34497;-83
2022/05/11 08:43:34;;;;;;;;;;;;;;;28.85;22.62;99424.16;4467705;32;33737;-83
2022/05/11 08:46:01;;;;;;;;;;;;;;;29.63;20.64;99408.00;4453921;32;34321;-83
2022/05/11 08:48:34;;;;;;;;;;;;;;;28.59;23.46;99426.53;4467496;32;34487;-83
2022/05/11 08:51:05;;;;;;;;;;;;;;;29.58;23.49;99425.16;4453749;32;34246;-84
2022/05/11 08:53:40;;;;;;;;;;;;;;;30.06;24.65;99424.88;4467701;32;34214;-84
2022/05/11 08:56:14;;;;;;;;;;;;;;;30.01;25.68;99427.84;4471055;32;35017;-83
2022/05/11 08:58:46;;;;;;;;;;;;;;;29.95;25.36;99420.19;4469522;32;35142;-81
2022/05/11 09:01:18;;;;;;;;;;;;;;;29.69;24.32;99427.16;4476205;32;35209;-83
2022/05/11 09:03:46;;;;;;;;;;;;;;;30.30;24.49;99419.78;4456077;32;33524;-81
2022/05/11 09:06:18;;;;;;;;;;;;;;;29.95;23.86;99425.53;4455796;32;33930;-82
2022/05/11 09:08:46;;;;;;;;;;;;;;;30.76;23.48;99424.81;4456237;32;34304;-82
2022/05/11 09:11:15;;;;;;;;;;;;;;;30.41;23.49;99425.31;4442652;32;33656;-81
2022/05/11 09:13:44;;;;;;;;;;;;;;;31.18;23.42;99422.94;4465907;32;33810;-83
2022/05/11 09:16:19;;;;;;;;;;;;;;;30.75;24.16;99428.47;4453714;32;34369;-82
2022/05/11 09:18:47;;;;;;;;;;;;;;;31.35;21.20;99416.44;4455125;32;33026;-83
2022/05/11 09:21:36;;;;;;;;;;;;;;;31.67;20.67;99416.84;4468623;32;34687;-83
2022/05/11 09:24:04;;;;;;;;;;;;;;;31.58;21.27;99418.38;4468793;32;34221;-82
2022/05/11 09:26:33;;;;;;;;;;;;;;;30.11;22.83;99419.22;4482558;32;34904;-84
2022/05/11 09:29:18;;;;;;;;;;;;;;;28.74;24.21;99429.25;4482658;32;33965;-81
2022/05/11 09:31:48;;;;;;;;;;;;;;;29.67;23.20;99428.22;4482229;32;34578;-82
2022/05/11 09:34:29;;;;;;;;;;;;;;;30.42;23.66;99423.47;4482563;32;34310;-81
2022/05/11 09:36:57;;;;;;;;;;;;;;;30.35;24.65;99433.75;4477434;32;33499;-81
2022/05/11 09:39:25;;;;;;;;;;;;;;;30.32;24.26;99420.56;4481506;32;34127;-81
2022/05/11 09:41:53;;;;;;;;;;;;;;;30.94;24.65;99422.75;4468413;32;35290;-81
2022/05/11 09:44:23;;;;;;;;;;;;;;;30.86;25.52;99425.09;4468250;32;33291;-81
2022/05/11 09:46:50;;;;;;;;;;;;;;;30.92;23.91;99420.19;4468266;32;34072;-80
2022/05/11 09:49:17;;;;;;;;;;;;;;;30.94;23.22;99418.25;4482327;32;34059;-80
2022/05/11 09:51:45;;;;;;;;;;;;;;;30.53;24.37;99419.16;4474470;32;34149;-83
2022/05/11 09:54:22;;;;;;;;;;;;;;;31.21;23.89;99417.34;4470921;32;33370;-82
2022/05/11 09:56:52;;;;;;;;;;;;;;;31.20;23.53;99418.31;4482044;32;33374;-81
2022/05/11 09:59:22;;;;;;;;;;;;;;;30.78;23.22;99425.59;4484070;32;35233;-81
2022/05/11 10:02:09;;;;;;;;;;;;;;;30.25;23.73;99417.41;4483644;32;35229;-81
2022/05/11 10:04:38;;;;;;;;;;;;;;;29.64;23.60;99415.06;4477162;32;33600;-82
2022/05/11 10:07:06;;;;;;;;;;;;;;;28.37;24.21;99418.03;4467473;32;34319;-82
2022/05/11 10:09:34;;;;;;;;;;;;;;;29.94;24.05;99415.81;4480425;32;34528;-82
2022/05/11 10:12:06;;;;;;;;;;;;;;;30.61;23.01;99409.75;4470690;32;34032;-83
2022/05/11 10:23:27;;;;;;;;;;;;;;;31.93;23.35;99410.53;4467383;32;34213;-81
2022/05/11 10:25:55;;;;;;;;;;;;;;;31.60;22.76;99403.03;4463836;32;32314;-81
2022/05/11 10:28:26;;;;;;;;;;;;;;;30.59;24.27;99409.00;4468405;32;34683;-82
2022/05/11 10:31:03;;;;;;;;;;;;;;;30.13;23.92;99399.47;4466891;32;34535;-82
2022/05/11 10:33:53;;;;;;;;;;;;;;;30.96;22.87;99402.94;4479407;32;34819;-83
2022/05/11 10:36:31;;;;;;;;;;;;;;;30.61;23.70;99409.75;4479650;32;33037;-82
2022/05/11 10:39:02;;;;;;;;;;;;;;;30.90;23.46;99397.16;4484151;32;34100;-83
2022/05/11 10:41:48;;;;;;;;;;;;;;;32.02;22.47;99398.31;4469881;32;34343;-83
2022/05/11 10:44:34;;;;;;;;;;;;;;;32.01;22.75;99393.88;4483425;32;34506;-82
2022/05/11 10:47:04;;;;;;;;;;;;;;;32.46;22.42;99386.16;4484283;32;33330;-82
2022/05/11 10:49:42;;;;;;;;;;;;;;;30.85;21.95;99384.06;4484155;32;34038;-87
2022/05/11 10:52:29;;;;;;;;;;;;;;;30.71;20.63;99386.78;4484282;32;35011;-83
2022/05/11 10:55:11;;;;;;;;;;;;;;;30.97;22.82;99377.88;4473432;32;34222;-83
2022/05/11 10:57:39;;;;;;;;;;;;;;;31.76;20.72;99384.06;4468130;32;33535;-84
2022/05/11 11:00:12;;;;;;;;;;;;;;;30.39;21.75;99384.44;4469397;32;34053;-81
2022/05/11 11:02:49;;;;;;;;;;;;;;;30.46;21.60;99388.44;4454289;32;35122;-82
2022/05/11 11:05:17;;;;;;;;;;;;;;;31.49;21.25;99377.00;4475254;32;34663;-82
2022/05/11 11:07:45;;;;;;;;;;;;;;;31.46;19.48;99374.53;4480075;32;33779;-81
2022/05/11 11:10:13;;;;;;;;;;;;;;;32.28;19.37;99377.63;4459630;32;35118;-82
2022/05/11 11:12:51;;;;;;;;;;;;;;;32.06;19.94;99372.97;4468618;32;34408;-82
2022/05/11 11:15:20;;;;;;;;;;;;;;;32.35;18.94;99373.53;4466922;32;35171;-82
2022/05/11 11:17:47;;;;;;;;;;;;;;;30.44;21.77;99374.28;4469785;32;33677;-82
2022/05/11 11:20:17;;;;;;;;;;;;;;;31.49;19.96;99370.78;4483846;32;35140;-82
2022/05/11 11:23:03;;;;;;;;;;;;;;;31.65;21.00;99374.09;4481429;32;35382;-82
2022/05/11 11:25:46;;;;;;;;;;;;;;;31.40;22.09;99368.72;4476814;32;35100;-83
2022/05/11 11:28:15;;;;;;;;;;;;;;;31.69;20.17;99364.84;4470921;32;34293;-81
2022/05/11 11:31:07;;;;;;;;;;;;;;;31.21;21.13;99367.28;4477097;32;34242;-82
2022/05/11 11:33:41;;;;;;;;;;;;;;;31.80;18.93;99372.12;4476794;32;35291;-83
2022/05/11 11:36:17;;;;;;;;;;;;;;;31.31;19.62;99364.03;4465750;32;34027;-83
2022/05/11 11:38:48;;;;;;;;;;;;;;;31.05;20.05;99363.13;4468162;32;33374;-83
2022/05/11 11:41:15;;;;;;;;;;;;;;;32.00;20.15;99361.81;4467668;32;34026;-83
2022/05/11 11:43:44;;;;;;;;;;;;;;;31.46;18.46;99358.44;4468039;32;35157;-82
2022/05/11 11:46:26;;;;;;;;;;;;;;;30.30;20.45;99355.59;4453827;32;35069;-83
2022/05/11 11:49:03;;;;;;;;;;;;;;;30.99;23.82;99357.22;4461607;32;32975;-83
2022/05/11 11:51:33;;;;;;;;;;;;;;;30.96;20.87;99346.72;4483538;32;34339;-83
2022/05/11 11:54:01;;;;;;;;;;;;;;;30.83;20.51;99342.31;4469330;32;35100;-83
2022/05/11 11:56:28;;;;;;;;;;;;;;;31.18;20.67;99338.06;4467957;32;34323;-83
2022/05/11 11:59:08;;;;;;;;;;;;;;;31.68;20.18;99341.72;4467955;32;33764;-83
2022/05/11 12:01:41;;;;;;;;;;;;;;;31.93;18.74;99335.44;4466667;32;34009;-82
2022/05/11 12:04:15;;;;;;;;;;;;;;;31.96;20.22;99329.87;4467795;32;35242;-82
2022/05/11 12:15:12;;;;;;;;;;;;;;;31.26;19.02;99321.47;4467533;32;35323;-83
2022/05/11 12:17:40;;;;;;;;;;;;;;;32.28;18.45;99323.97;4466092;32;34267;-84
2022/05/11 12:20:12;;;;;;;;;;;;;;;32.66;18.73;99309.53;4467791;32;34311;-83
2022/05/11 12:22:42;;;;;;;;;;;;;;;31.96;18.75;99315.59;4466681;32;34547;-83
2022/05/11 12:25:21;;;;;;;;;;;;;;;32.80;18.41;99311.97;4473445;32;34483;-84
2022/05/11 12:27:49;;;;;;;;;;;;;;;31.66;19.83;99313.28;4469469;32;34273;-82
2022/05/11 12:30:18;;;;;;;;;;;;;;;32.06;18.83;99313.13;4481053;32;34463;-82
2022/05/11 12:32:50;;;;;;;;;;;;;;;32.13;19.95;99311.69;4478624;32;34325;-82
2022/05/11 12:35:20;;;;;;;;;;;;;;;32.21;19.21;99309.28;4467533;32;33876;-83
2022/05/11 12:37:52;;;;;;;;;;;;;;;31.44;21.29;99304.12;4460440;32;34424;-84
2022/05/11 12:40:20;;;;;;;;;;;;;;;32.50;19.55;99306.28;4482839;32;33804;-83
2022/05/11 12:42:52;;;;;;;;;;;;;;;32.40;19.04;99290.88;4463610;32;35087;-83
2022/05/11 12:45:21;;;;;;;;;;;;;;;32.16;19.38;99298.03;4462260;32;34426;-83
2022/05/11 12:47:50;;;;;;;;;;;;;;;32.10;19.96;99301.19;4477542;32;34403;-82
2022/05/11 12:50:37;;;;;;;;;;;;;;;32.42;20.96;99286.22;4453312;32;33518;-83
2022/05/11 12:53:09;;;;;;;;;;;;;;;32.06;20.26;99294.34;4467334;32;33659;-83
2022/05/11 12:55:36;;;;;;;;;;;;;;;32.14;20.25;99297.31;4472828;32;34226;-83
2022/05/11 12:58:04;;;;;;;;;;;;;;;31.95;21.10;99285.25;4477792;32;35199;-83
2022/05/11 13:00:33;;;;;;;;;;;;;;;32.63;20.11;99277.53;4468245;32;33650;-82
2022/05/11 13:03:19;;;;;;;;;;;;;;;32.80;20.67;99277.06;4472765;32;34317;-83
2022/05/11 13:05:46;;;;;;;;;;;;;;;32.95;20.06;99275.06;4483018;32;35075;-83
2022/05/11 13:08:17;;;;;;;;;;;;;;;32.72;20.90;99271.44;4467871;32;34530;-81
2022/05/11 13:10:44;;;;;;;;;;;;;;;32.29;19.97;99266.66;4467449;32;34519;-81
2022/05/11 13:13:13;;;;;;;;;;;;;;;33.19;19.43;99266.94;4470922;32;35256;-80
2022/05/11 13:15:41;;;;;;;;;;;;;;;32.58;19.40;99267.16;4468807;32;34424;-81
2022/05/11 13:18:09;;;;;;;;;;;;;;;30.94;20.43;99271.00;4482873;32;34429;-82
2022/05/11 13:20:41;;;;;;;;;;;;;;;32.93;19.42;99267.13;4470641;32;34400;-83
2022/05/11 13:23:11;;;;;;;;;;;;;;;32.98;20.30;99264.09;4453014;32;34154;-83
2022/05/11 13:25:50;;;;;;;;;;;;;;;31.29;20.27;99262.28;4453319;32;35347;-82
2022/05/11 13:28:23;;;;;;;;;;;;;;;31.93;20.23;99260.38;4466874;32;34376;-81
2022/05/11 13:30:53;;;;;;;;;;;;;;;32.70;19.91;99249.25;4469553;32;33794;-83
2022/05/11 13:33:28;;;;;;;;;;;;;;;32.82;20.17;99250.97;4482698;32;33870;-83
2022/05/11 13:36:08;;;;;;;;;;;;;;;32.92;19.61;99243.03;4468426;32;33979;-83
2022/05/11 13:38:35;;;;;;;;;;;;;;;33.30;19.40;99242.75;4482428;32;34675;-83
2022/05/11 13:41:10;;;;;;;;;;;;;;;31.85;20.77;99252.03;4482767;32;33512;-84